Temp: 20.0°C   Baro: 1012.1mb
  Wind: 4.9mph   Dir: W (281°)
  Rain: 0.0mm (0.0mm/hr)
  Solar: 267W/m2  Hum: 63%
 
Bath Spa Weather Station Historical Data
Daily Summary for February 28, 2020 Units:  Metric    English   Both
Daily Weekly Monthly Yearly Custom
  High: Low: Average:
Temperature: 15.2 °C 11.4 °C 12.9 °C
Dew Point: 12.8 °C 8.8 °C 11.1 °C
Humidity: 88% 81% 85%
Wind Speed: 16.6km/h 1.6km/h 8km/h
Wind Gust: 33.8km/h - -
Wind- - SE
Pressure: 1006.7 hPa 1001.9 hPa -
Precipitation: 5.08 mm    
Historical Graphs
 
 
Tabular Data for February 28, 2020
Time Temperature Dew Point Pressure Wind Wind Speed Wind Gust Humidity Rainfall Rate (Hourly) solar
17:24 15.2 °C 12.7 °C 1001.9 hPa NNE 8.7 km/h 14.5 km/h 83% 0 mm 62 W/m2
17:29 15.1 °C 12.7 °C 1001.9 hPa NE 5.5 km/h 12.9 km/h 83% 0 mm 77 W/m2
17:34 15.1 °C 12.7 °C 1001.9 hPa NNE 8.9 km/h 17.7 km/h 83% 0 mm 77 W/m2
17:39 14.8 °C 12.4 °C 1001.9 hPa NE 13.8 km/h 27.4 km/h 83% 0 mm 98 W/m2
17:44 14.8 °C 12.4 °C 1001.9 hPa NE 6 km/h 14.5 km/h 83% 0 mm 105 W/m2
17:49 14.8 °C 12.4 °C 1001.9 hPa NNE 7.9 km/h 14.5 km/h 83% 0 mm 107 W/m2
17:54 14.8 °C 12.6 °C 1001.9 hPa NE 3.7 km/h 11.3 km/h 83.8% 0 mm 105 W/m2
17:59 14.8 °C 12.6 °C 1002.3 hPa NNE 3.5 km/h 12.9 km/h 84% 0 mm 81 W/m2
18:04 14.9 °C 12.7 °C 1002.3 hPa NNE 4.5 km/h 8 km/h 84% 0 mm 72 W/m2
18:08 14.8 °C 12.8 °C 1002.3 hPa NNW 5.1 km/h 11.3 km/h 85% 0 mm 95 W/m2
18:14 14.7 °C 12.8 °C 1002.3 hPa North 10.8 km/h 16.1 km/h 85.6% 0 mm 69 W/m2
18:19 14.3 °C 12.6 °C 1002.6 hPa NNE 10.6 km/h 33.8 km/h 86.2% 0.51 mm 30 W/m2
18:24 13.9 °C 12.3 °C 1002.6 hPa North 16.6 km/h 33.8 km/h 87% 0.51 mm 33 W/m2
18:29 13.7 °C 12.1 °C 1002.6 hPa NNE 13.5 km/h 24.1 km/h 87.6% 0.51 mm 37 W/m2
18:34 13.6 °C 12.1 °C 1002.6 hPa NNE 7.4 km/h 24.1 km/h 88% 0.51 mm 40 W/m2
18:39 13.6 °C 12.1 °C 1002.9 hPa NNE 14.8 km/h 24.1 km/h 88% 0.51 mm 63 W/m2
18:44 13.6 °C 12.1 °C 1002.9 hPa NNE 7.7 km/h 16.1 km/h 88% 0.51 mm 84 W/m2
18:49 13.6 °C 12.1 °C 1002.9 hPa NE 11.3 km/h 19.3 km/h 88% 0.51 mm 83 W/m2
18:54 13.6 °C 12.1 °C 1002.9 hPa NNE 10 km/h 25.7 km/h 88% 0.51 mm 58 W/m2
18:59 13.6 °C 12.1 °C 1002.9 hPa NNE 13.5 km/h 17.7 km/h 88% 0.51 mm 49 W/m2
19:04 13.6 °C 12 °C 1003.3 hPa NNE 11.9 km/h 22.5 km/h 87.6% 0.51 mm 39 W/m2
19:09 13.5 °C 11.9 °C 1003.3 hPa NNE 10.6 km/h 24.1 km/h 87% 0.51 mm 21 W/m2
19:14 13.3 °C 11.8 °C 1003.6 hPa NNE 14.2 km/h 24.1 km/h 87% 0.51 mm 18 W/m2
19:19 13.2 °C 11.6 °C 1003.3 hPa North 9.7 km/h 24.1 km/h 87% 0.51 mm 21 W/m2
19:24 13.1 °C 11.4 °C 1003.6 hPa NNE 10.1 km/h 20.9 km/h 87% 0.25 mm 19 W/m2
19:29 12.9 °C 11.3 °C 1003.6 hPa NNE 7.7 km/h 16.1 km/h 87% 0 mm 18 W/m2
19:34 12.9 °C 11.3 °C 1003.6 hPa NNE 11.1 km/h 20.9 km/h 87% 0 mm 16 W/m2
19:39 12.8 °C 11.2 °C 1003.6 hPa NNE 11.9 km/h 27.4 km/h 87% 0 mm 16 W/m2
19:44 12.8 °C 11.2 °C 1003.9 hPa NE 9.3 km/h 24.1 km/h 87% 0 mm 12 W/m2
19:49 12.9 °C 11.3 °C 1003.9 hPa NNW 3.9 km/h 12.9 km/h 87% 0 mm 7 W/m2
19:54 12.9 °C 11.3 °C 1003.9 hPa North 5.6 km/h 20.9 km/h 87% 0 mm 5 W/m2
19:58 12.9 °C 11.3 °C 1003.9 hPa NNE 3.5 km/h 11.3 km/h 87% 0 mm 0 W/m2
20:04 12.8 °C 11.2 °C 1003.9 hPa North 8.7 km/h 19.3 km/h 87% 0 mm 0 W/m2
20:09 12.8 °C 11.2 °C 1004.3 hPa North 7.2 km/h 14.5 km/h 87% 0 mm 0 W/m2
20:14 12.8 °C 11.3 °C 1004.3 hPa NNE 10.6 km/h 17.7 km/h 87% 0 mm 0 W/m2
20:19 12.9 °C 11.3 °C 1004.3 hPa NNE 6.9 km/h 17.7 km/h 87% 0 mm 0 W/m2
20:24 12.9 °C 11.3 °C 1004.3 hPa North 1.6 km/h 8 km/h 87% 0 mm 0 W/m2
20:29 12.9 °C 11.3 °C 1004.3 hPa NNW 3.2 km/h 9.7 km/h 87% 0 mm 0 W/m2
20:34 12.9 °C 11.3 °C 1004.3 hPa North 6.4 km/h 12.9 km/h 87% 0 mm 0 W/m2
20:39 12.9 °C 11.3 °C 1004.6 hPa NNW 4.7 km/h 11.3 km/h 87% 0 mm 0 W/m2
20:44 12.9 °C 11.3 °C 1004.6 hPa North 7.2 km/h 14.5 km/h 87% 0 mm 0 W/m2
20:49 12.9 °C 11.3 °C 1004.6 hPa North 6.8 km/h 14.5 km/h 87% 0 mm 0 W/m2
20:54 12.8 °C 11.2 °C 1005 hPa North 10.9 km/h 20.9 km/h 87% 0 mm 0 W/m2
20:59 12.8 °C 11.2 °C 1005 hPa North 4.7 km/h 12.9 km/h 87% 0 mm 0 W/m2
21:04 12.7 °C 11.1 °C 1005 hPa North 7.1 km/h 17.7 km/h 87% 0 mm 0 W/m2
21:09 12.6 °C 11 °C 1005.3 hPa North 8.4 km/h 19.3 km/h 87% 0 mm 0 W/m2
21:14 12.6 °C 11 °C 1005.3 hPa North 7.7 km/h 20.9 km/h 87% 0 mm 0 W/m2
21:19 12.6 °C 11 °C 1005.3 hPa NNE 7.7 km/h 20.9 km/h 87% 0 mm 0 W/m2
21:24 12.6 °C 11 °C 1005.3 hPa North 7.7 km/h 19.3 km/h 87% 0 mm 0 W/m2
21:29 12.5 °C 10.9 °C 1005.3 hPa North 5.1 km/h 19.3 km/h 87% 0 mm 0 W/m2
21:34 12.4 °C 10.8 °C 1005.3 hPa NNW 5.3 km/h 14.5 km/h 87% 0 mm 0 W/m2
21:39 12.4 °C 10.8 °C 1005.6 hPa North 4.3 km/h 14.5 km/h 87% 0 mm 0 W/m2
21:44 12.4 °C 10.8 °C 1005.6 hPa North 5.3 km/h 16.1 km/h 87% 0 mm 0 W/m2
21:49 12.3 °C 10.7 °C 1005.6 hPa North 5.8 km/h 17.7 km/h 86.8% 0 mm 0 W/m2
21:54 12.3 °C 10.5 °C 1005.6 hPa North 10.5 km/h 17.7 km/h 86% 0 mm 0 W/m2
21:59 12.3 °C 10.4 °C 1005.6 hPa NNW 9.3 km/h 19.3 km/h 85.4% 0 mm 0 W/m2
22:04 12.3 °C 10.3 °C 1005.6 hPa North 5 km/h 14.5 km/h 85% 0 mm 0 W/m2
22:09 12.3 °C 10.3 °C 1005.6 hPa North 9 km/h 20.9 km/h 85% 0 mm 0 W/m2
22:13 12.3 °C 10.3 °C 1006 hPa NNE 7.9 km/h 16.1 km/h 85% 0 mm 0 W/m2
22:19 12.3 °C 10.3 °C 1006 hPa NNE 7.2 km/h 17.7 km/h 85% 0 mm 0 W/m2
22:24 12.2 °C 10.2 °C 1006 hPa NNW 6.4 km/h 17.7 km/h 84% 0 mm 0 W/m2
22:29 12.3 °C 10.2 °C 1006 hPa NNW 6 km/h 9.7 km/h 84.2% 0 mm 0 W/m2
22:34 12.3 °C 10.3 °C 1006 hPa North 6.8 km/h 20.9 km/h 85% 0 mm 0 W/m2
22:39 12.2 °C 10.2 °C 1006 hPa NNW 6.6 km/h 20.9 km/h 85% 0 mm 0 W/m2
22:44 12.2 °C 10.1 °C 1006.3 hPa North 12.7 km/h 20.9 km/h 84.4% 0 mm 0 W/m2
22:49 12.1 °C 9.9 °C 1006.3 hPa North 11.1 km/h 22.5 km/h 83.6% 0 mm 0 W/m2
22:54 12.1 °C 9.8 °C 1006.3 hPa North 9.7 km/h 19.3 km/h 83% 0 mm 0 W/m2
22:59 12.1 °C 9.6 °C 1006.3 hPa North 10.3 km/h 20.9 km/h 82% 0 mm 0 W/m2
23:04 12.1 °C 9.6 °C 1006.3 hPa North 7.7 km/h 17.7 km/h 82% 0 mm 0 W/m2
23:09 12.1 °C 9.6 °C 1006.3 hPa North 9.7 km/h 20.9 km/h 82% 0 mm 0 W/m2
23:14 12 °C 9.5 °C 1006.3 hPa NNW 6.8 km/h 17.7 km/h 82% 0 mm 0 W/m2
23:19 11.9 °C 9.4 °C 1006.3 hPa NNW 7.9 km/h 19.3 km/h 81.8% 0 mm 0 W/m2
23:24 11.9 °C 9.2 °C 1006.3 hPa NNW 11.6 km/h 20.9 km/h 81% 0 mm 0 W/m2
23:29 11.8 °C 9.1 °C 1006.7 hPa North 7.7 km/h 14.5 km/h 81% 0 mm 0 W/m2
23:34 11.8 °C 9.1 °C 1006.3 hPa North 5.3 km/h 17.7 km/h 81% 0 mm 0 W/m2
23:39 11.7 °C 9 °C 1006.3 hPa NNW 5.3 km/h 17.7 km/h 81% 0 mm 0 W/m2
23:44 11.7 °C 8.9 °C 1006.3 hPa NW 7.7 km/h 25.7 km/h 81% 0 mm 0 W/m2
23:49 11.6 °C 8.9 °C 1006.7 hPa NNW 4 km/h 19.3 km/h 81% 0 mm 0 W/m2
23:54 11.6 °C 8.9 °C 1006.7 hPa North 7.1 km/h 11.3 km/h 81% 0 mm 0 W/m2
23:59 11.4 °C 8.8 °C 1006.7 hPa NW 7.1 km/h 16.1 km/h 81% 0 mm 0 W/m2
Bath Spa Weather
Compliments of Weather Underground - 2 mb